sensor_id;sensor_type;location;lat;lon;timestamp;temperature;humidity
8820;DHT22;4446;50.876;4.736;2023-02-23T00:00:31;7.90;99.90
8820;DHT22;4446;50.876;4.736;2023-02-23T00:03:00;7.90;99.90
8820;DHT22;4446;50.876;4.736;2023-02-23T00:05:28;8.00;99.90
8820;DHT22;4446;50.876;4.736;2023-02-23T00:07:56;8.00;99.90
8820;DHT22;4446;50.876;4.736;2023-02-23T00:10:23;8.00;99.90
8820;DHT22;4446;50.876;4.736;2023-02-23T00:12:57;7.90;99.90
8820;DHT22;4446;50.876;4.736;2023-02-23T00:15:24;7.90;99.90
8820;DHT22;4446;50.876;4.736;2023-02-23T00:17:52;8.00;99.90
8820;DHT22;4446;50.876;4.736;2023-02-23T00:20:20;8.00;99.90
8820;DHT22;4446;50.876;4.736;2023-02-23T00:22:52;8.00;99.90
8820;DHT22;4446;50.876;4.736;2023-02-23T00:25:19;8.00;99.90
8820;DHT22;4446;50.876;4.736;2023-02-23T00:27:47;8.00;99.90
8820;DHT22;4446;50.876;4.736;2023-02-23T00:30:16;8.00;99.90
8820;DHT22;4446;50.876;4.736;2023-02-23T00:32:44;8.00;99.90
8820;DHT22;4446;50.876;4.736;2023-02-23T00:35:11;8.00;99.90
8820;DHT22;4446;50.876;4.736;2023-02-23T00:37:43;8.00;99.90
8820;DHT22;4446;50.876;4.736;2023-02-23T00:40:12;8.00;99.90
8820;DHT22;4446;50.876;4.736;2023-02-23T00:42:42;8.00;99.90
8820;DHT22;4446;50.876;4.736;2023-02-23T00:45:10;8.00;99.90
8820;DHT22;4446;50.876;4.736;2023-02-23T00:47:41;8.00;99.90
8820;DHT22;4446;50.876;4.736;2023-02-23T00:50:10;8.00;99.90
8820;DHT22;4446;50.876;4.736;2023-02-23T00:52:40;8.00;99.90
8820;DHT22;4446;50.876;4.736;2023-02-23T00:55:09;8.00;99.90
8820;DHT22;4446;50.876;4.736;2023-02-23T00:57:37;8.00;99.90
8820;DHT22;4446;50.876;4.736;2023-02-23T01:00:05;8.00;99.90
8820;DHT22;4446;50.876;4.736;2023-02-23T01:02:43;8.00;99.90
8820;DHT22;4446;50.876;4.736;2023-02-23T01:05:10;8.00;99.90
8820;DHT22;4446;50.876;4.736;2023-02-23T01:07:39;8.00;99.90
8820;DHT22;4446;50.876;4.736;2023-02-23T01:10:07;8.00;99.90
8820;DHT22;4446;50.876;4.736;2023-02-23T01:12:46;8.00;99.90
8820;DHT22;4446;50.876;4.736;2023-02-23T01:15:13;8.00;99.90
8820;DHT22;4446;50.876;4.736;2023-02-23T01:17:40;8.00;99.90
8820;DHT22;4446;50.876;4.736;2023-02-23T01:20:10;8.00;99.90
8820;DHT22;4446;50.876;4.736;2023-02-23T01:22:42;8.00;99.90
8820;DHT22;4446;50.876;4.736;2023-02-23T01:25:09;8.00;99.90
8820;DHT22;4446;50.876;4.736;2023-02-23T01:27:38;8.00;99.90
8820;DHT22;4446;50.876;4.736;2023-02-23T01:30:06;8.00;99.90
8820;DHT22;4446;50.876;4.736;2023-02-23T01:32:34;8.00;99.90
8820;DHT22;4446;50.876;4.736;2023-02-23T01:35:02;8.10;99.90
8820;DHT22;4446;50.876;4.736;2023-02-23T01:37:30;8.10;99.90
8820;DHT22;4446;50.876;4.736;2023-02-23T01:39:59;8.10;99.90
8820;DHT22;4446;50.876;4.736;2023-02-23T01:42:28;8.00;99.90
8820;DHT22;4446;50.876;4.736;2023-02-23T01:45:21;8.00;99.90
8820;DHT22;4446;50.876;4.736;2023-02-23T01:47:48;8.00;99.90
8820;DHT22;4446;50.876;4.736;2023-02-23T01:50:16;8.00;99.90
8820;DHT22;4446;50.876;4.736;2023-02-23T01:52:46;8.00;99.90
8820;DHT22;4446;50.876;4.736;2023-02-23T01:55:16;8.00;99.90
8820;DHT22;4446;50.876;4.736;2023-02-23T01:57:49;8.10;99.90
8820;DHT22;4446;50.876;4.736;2023-02-23T02:00:19;8.00;99.90
8820;DHT22;4446;50.876;4.736;2023-02-23T02:02:50;8.00;99.90
8820;DHT22;4446;50.876;4.736;2023-02-23T02:05:18;8.00;99.90
8820;DHT22;4446;50.876;4.736;2023-02-23T02:07:49;8.10;99.90
8820;DHT22;4446;50.876;4.736;2023-02-23T02:10:24;8.10;99.90
8820;DHT22;4446;50.876;4.736;2023-02-23T02:13:15;8.00;99.90
8820;DHT22;4446;50.876;4.736;2023-02-23T02:18:47;8.00;99.90
8820;DHT22;4446;50.876;4.736;2023-02-23T02:21:49;8.00;99.90
8820;DHT22;4446;50.876;4.736;2023-02-23T02:27:33;8.10;99.90
8820;DHT22;4446;50.876;4.736;2023-02-23T02:30:33;8.10;99.90
8820;DHT22;4446;50.876;4.736;2023-02-23T02:33:23;8.10;99.90
8820;DHT22;4446;50.876;4.736;2023-02-23T02:39:02;8.00;99.90
8820;DHT22;4446;50.876;4.736;2023-02-23T02:41:42;8.00;99.90
8820;DHT22;4446;50.876;4.736;2023-02-23T02:44:19;8.10;99.90
8820;DHT22;4446;50.876;4.736;2023-02-23T02:46:49;8.10;99.90
8820;DHT22;4446;50.876;4.736;2023-02-23T02:49:24;8.10;99.90
8820;DHT22;4446;50.876;4.736;2023-02-23T02:51:57;8.10;99.90
8820;DHT22;4446;50.876;4.736;2023-02-23T02:54:30;8.10;99.90
8820;DHT22;4446;50.876;4.736;2023-02-23T02:57:01;8.00;99.90
8820;DHT22;4446;50.876;4.736;2023-02-23T02:59:29;8.10;99.90
8820;DHT22;4446;50.876;4.736;2023-02-23T03:02:16;8.10;99.90
8820;DHT22;4446;50.876;4.736;2023-02-23T03:05:00;8.10;99.90
8820;DHT22;4446;50.876;4.736;2023-02-23T03:07:49;8.10;99.90
8820;DHT22;4446;50.876;4.736;2023-02-23T03:10:43;8.10;99.90
8820;DHT22;4446;50.876;4.736;2023-02-23T03:13:38;8.20;99.90
8820;DHT22;4446;50.876;4.736;2023-02-23T03:16:32;8.10;99.90
8820;DHT22;4446;50.876;4.736;2023-02-23T03:19:22;8.20;99.90
8820;DHT22;4446;50.876;4.736;2023-02-23T03:22:16;8.20;99.90
8820;DHT22;4446;50.876;4.736;2023-02-23T03:25:07;8.20;99.90
8820;DHT22;4446;50.876;4.736;2023-02-23T03:27:58;8.30;99.90
8820;DHT22;4446;50.876;4.736;2023-02-23T03:30:49;8.30;99.90
8820;DHT22;4446;50.876;4.736;2023-02-23T03:33:39;8.30;99.90
8820;DHT22;4446;50.876;4.736;2023-02-23T03:36:26;8.20;99.90
8820;DHT22;4446;50.876;4.736;2023-02-23T03:39:18;8.20;99.90
8820;DHT22;4446;50.876;4.736;2023-02-23T03:42:08;8.20;99.90
8820;DHT22;4446;50.876;4.736;2023-02-23T03:44:56;8.20;99.90
8820;DHT22;4446;50.876;4.736;2023-02-23T03:47:42;8.20;99.90
8820;DHT22;4446;50.876;4.736;2023-02-23T03:50:33;8.20;99.90
8820;DHT22;4446;50.876;4.736;2023-02-23T03:53:22;8.10;99.90
8820;DHT22;4446;50.876;4.736;2023-02-23T03:56:08;8.20;99.90
8820;DHT22;4446;50.876;4.736;2023-02-23T03:58:56;8.20;99.90
8820;DHT22;4446;50.876;4.736;2023-02-23T04:01:44;8.20;99.90
8820;DHT22;4446;50.876;4.736;2023-02-23T04:04:29;8.20;99.90
8820;DHT22;4446;50.876;4.736;2023-02-23T04:07:17;8.20;99.90
8820;DHT22;4446;50.876;4.736;2023-02-23T04:10:03;8.30;99.90
8820;DHT22;4446;50.876;4.736;2023-02-23T04:12:55;8.20;99.90
8820;DHT22;4446;50.876;4.736;2023-02-23T04:15:52;8.30;99.90
8820;DHT22;4446;50.876;4.736;2023-02-23T04:18:23;8.30;99.90
8820;DHT22;4446;50.876;4.736;2023-02-23T04:20:51;8.30;99.90
8820;DHT22;4446;50.876;4.736;2023-02-23T04:23:18;8.30;99.90
8820;DHT22;4446;50.876;4.736;2023-02-23T04:25:47;8.40;99.90
8820;DHT22;4446;50.876;4.736;2023-02-23T04:28:14;8.40;99.90
8820;DHT22;4446;50.876;4.736;2023-02-23T04:30:41;8.30;99.90
8820;DHT22;4446;50.876;4.736;2023-02-23T04:33:08;8.30;99.90
8820;DHT22;4446;50.876;4.736;2023-02-23T04:35:36;8.20;99.90
8820;DHT22;4446;50.876;4.736;2023-02-23T04:38:03;8.10;99.90
8820;DHT22;4446;50.876;4.736;2023-02-23T04:40:31;8.10;99.90
8820;DHT22;4446;50.876;4.736;2023-02-23T04:42:58;8.10;99.90
8820;DHT22;4446;50.876;4.736;2023-02-23T04:45:26;8.00;99.90
8820;DHT22;4446;50.876;4.736;2023-02-23T04:47:53;8.00;99.90
8820;DHT22;4446;50.876;4.736;2023-02-23T04:50:20;8.00;99.90
8820;DHT22;4446;50.876;4.736;2023-02-23T04:52:48;7.90;99.90
8820;DHT22;4446;50.876;4.736;2023-02-23T04:55:19;7.90;99.90
8820;DHT22;4446;50.876;4.736;2023-02-23T04:57:47;7.90;99.90
8820;DHT22;4446;50.876;4.736;2023-02-23T05:00:15;7.90;99.90
8820;DHT22;4446;50.876;4.736;2023-02-23T05:02:42;7.80;99.90
8820;DHT22;4446;50.876;4.736;2023-02-23T05:05:10;7.80;99.90
8820;DHT22;4446;50.876;4.736;2023-02-23T05:07:37;7.80;99.90
8820;DHT22;4446;50.876;4.736;2023-02-23T05:10:06;7.80;99.90
8820;DHT22;4446;50.876;4.736;2023-02-23T05:12:33;7.80;99.90
8820;DHT22;4446;50.876;4.736;2023-02-23T05:15:00;7.80;99.90
8820;DHT22;4446;50.876;4.736;2023-02-23T05:17:27;7.80;99.90
8820;DHT22;4446;50.876;4.736;2023-02-23T05:19:54;7.80;99.90
8820;DHT22;4446;50.876;4.736;2023-02-23T05:22:21;7.70;99.90
8820;DHT22;4446;50.876;4.736;2023-02-23T05:24:48;7.70;99.90
8820;DHT22;4446;50.876;4.736;2023-02-23T05:27:17;7.70;99.90
8820;DHT22;4446;50.876;4.736;2023-02-23T05:29:43;7.70;99.90
8820;DHT22;4446;50.876;4.736;2023-02-23T05:32:10;7.70;99.90
8820;DHT22;4446;50.876;4.736;2023-02-23T05:34:37;7.70;99.90
8820;DHT22;4446;50.876;4.736;2023-02-23T05:37:05;7.70;99.90
8820;DHT22;4446;50.876;4.736;2023-02-23T05:39:32;7.70;99.90
8820;DHT22;4446;50.876;4.736;2023-02-23T05:41:59;7.70;99.90
8820;DHT22;4446;50.876;4.736;2023-02-23T05:44:27;7.70;99.90
8820;DHT22;4446;50.876;4.736;2023-02-23T05:46:54;7.70;99.90
8820;DHT22;4446;50.876;4.736;2023-02-23T05:49:21;7.70;99.90
8820;DHT22;4446;50.876;4.736;2023-02-23T05:51:48;7.70;99.90
8820;DHT22;4446;50.876;4.736;2023-02-23T05:54:16;7.60;99.90
8820;DHT22;4446;50.876;4.736;2023-02-23T05:56:43;7.60;99.90
8820;DHT22;4446;50.876;4.736;2023-02-23T05:59:10;7.60;99.90
8820;DHT22;4446;50.876;4.736;2023-02-23T06:01:39;7.60;99.90
8820;DHT22;4446;50.876;4.736;2023-02-23T06:04:06;7.50;99.90
8820;DHT22;4446;50.876;4.736;2023-02-23T06:06:33;7.50;99.90
8820;DHT22;4446;50.876;4.736;2023-02-23T06:09:00;7.50;99.90
8820;DHT22;4446;50.876;4.736;2023-02-23T06:11:28;7.50;99.90
8820;DHT22;4446;50.876;4.736;2023-02-23T06:13:56;7.50;99.90
8820;DHT22;4446;50.876;4.736;2023-02-23T06:16:23;7.50;99.90
8820;DHT22;4446;50.876;4.736;2023-02-23T06:18:52;7.50;99.90
8820;DHT22;4446;50.876;4.736;2023-02-23T06:21:19;7.50;99.90
8820;DHT22;4446;50.876;4.736;2023-02-23T06:23:46;7.50;99.90
8820;DHT22;4446;50.876;4.736;2023-02-23T06:26:13;7.50;99.90
8820;DHT22;4446;50.876;4.736;2023-02-23T06:28:40;7.40;99.90
8820;DHT22;4446;50.876;4.736;2023-02-23T06:31:06;7.50;99.90
8820;DHT22;4446;50.876;4.736;2023-02-23T06:33:33;7.50;99.90
8820;DHT22;4446;50.876;4.736;2023-02-23T06:36:02;7.50;99.90
8820;DHT22;4446;50.876;4.736;2023-02-23T06:38:29;7.40;99.90
8820;DHT22;4446;50.876;4.736;2023-02-23T06:40:55;7.50;99.90
8820;DHT22;4446;50.876;4.736;2023-02-23T06:43:22;7.60;99.90
8820;DHT22;4446;50.876;4.736;2023-02-23T06:45:49;7.60;99.90
8820;DHT22;4446;50.876;4.736;2023-02-23T06:48:16;7.50;99.90
8820;DHT22;4446;50.876;4.736;2023-02-23T06:50:44;7.50;99.90
8820;DHT22;4446;50.876;4.736;2023-02-23T06:53:12;7.50;99.90
8820;DHT22;4446;50.876;4.736;2023-02-23T06:55:39;7.50;99.90
8820;DHT22;4446;50.876;4.736;2023-02-23T06:58:05;7.50;99.90
8820;DHT22;4446;50.876;4.736;2023-02-23T07:00:32;7.50;99.90
8820;DHT22;4446;50.876;4.736;2023-02-23T07:02:59;7.50;99.90
8820;DHT22;4446;50.876;4.736;2023-02-23T07:05:26;7.50;99.90
8820;DHT22;4446;50.876;4.736;2023-02-23T07:07:54;7.50;99.90
8820;DHT22;4446;50.876;4.736;2023-02-23T07:10:22;7.40;99.90
8820;DHT22;4446;50.876;4.736;2023-02-23T07:12:49;7.40;99.90
8820;DHT22;4446;50.876;4.736;2023-02-23T07:15:16;7.40;99.90
8820;DHT22;4446;50.876;4.736;2023-02-23T07:17:45;7.30;99.90
8820;DHT22;4446;50.876;4.736;2023-02-23T07:20:13;7.30;99.90
8820;DHT22;4446;50.876;4.736;2023-02-23T07:22:40;7.30;99.90
8820;DHT22;4446;50.876;4.736;2023-02-23T07:25:08;7.40;99.90
8820;DHT22;4446;50.876;4.736;2023-02-23T07:27:36;7.40;99.90
8820;DHT22;4446;50.876;4.736;2023-02-23T07:30:04;7.50;99.90
8820;DHT22;4446;50.876;4.736;2023-02-23T07:32:31;7.50;99.90
8820;DHT22;4446;50.876;4.736;2023-02-23T07:34:58;7.50;99.90
8820;DHT22;4446;50.876;4.736;2023-02-23T07:37:25;7.50;99.90
8820;DHT22;4446;50.876;4.736;2023-02-23T07:39:52;7.60;99.90
8820;DHT22;4446;50.876;4.736;2023-02-23T07:42:19;7.70;99.90
8820;DHT22;4446;50.876;4.736;2023-02-23T07:44:48;7.70;99.90
8820;DHT22;4446;50.876;4.736;2023-02-23T07:47:15;7.70;99.90
8820;DHT22;4446;50.876;4.736;2023-02-23T07:49:42;7.80;99.90
8820;DHT22;4446;50.876;4.736;2023-02-23T07:52:09;7.80;99.90
8820;DHT22;4446;50.876;4.736;2023-02-23T07:54:35;7.80;99.90
8820;DHT22;4446;50.876;4.736;2023-02-23T07:57:02;7.90;99.90
8820;DHT22;4446;50.876;4.736;2023-02-23T07:59:29;7.90;99.90
8820;DHT22;4446;50.876;4.736;2023-02-23T08:01:58;7.90;99.90
8820;DHT22;4446;50.876;4.736;2023-02-23T08:04:25;7.90;99.90
8820;DHT22;4446;50.876;4.736;2023-02-23T08:06:52;7.80;99.90
8820;DHT22;4446;50.876;4.736;2023-02-23T08:09:19;7.90;99.90
8820;DHT22;4446;50.876;4.736;2023-02-23T08:11:46;7.90;99.90
8820;DHT22;4446;50.876;4.736;2023-02-23T08:14:13;7.90;99.90
8820;DHT22;4446;50.876;4.736;2023-02-23T08:16:40;7.90;99.90
8820;DHT22;4446;50.876;4.736;2023-02-23T08:19:09;8.00;99.90
8820;DHT22;4446;50.876;4.736;2023-02-23T08:21:35;7.90;99.90
8820;DHT22;4446;50.876;4.736;2023-02-23T08:24:02;7.90;99.90
8820;DHT22;4446;50.876;4.736;2023-02-23T08:26:29;7.90;99.90
8820;DHT22;4446;50.876;4.736;2023-02-23T08:28:56;7.80;99.90
8820;DHT22;4446;50.876;4.736;2023-02-23T08:31:23;7.80;99.90
8820;DHT22;4446;50.876;4.736;2023-02-23T08:33:52;7.80;99.90
8820;DHT22;4446;50.876;4.736;2023-02-23T08:36:20;7.90;99.90
8820;DHT22;4446;50.876;4.736;2023-02-23T08:38:48;7.90;99.90
8820;DHT22;4446;50.876;4.736;2023-02-23T08:41:15;8.00;99.90
8820;DHT22;4446;50.876;4.736;2023-02-23T08:43:42;8.10;99.90
8820;DHT22;4446;50.876;4.736;2023-02-23T08:46:10;8.10;99.90
8820;DHT22;4446;50.876;4.736;2023-02-23T08:48:37;8.20;99.90
8820;DHT22;4446;50.876;4.736;2023-02-23T08:51:05;8.20;99.90
8820;DHT22;4446;50.876;4.736;2023-02-23T08:53:34;8.30;99.90
8820;DHT22;4446;50.876;4.736;2023-02-23T08:56:04;8.30;99.90
8820;DHT22;4446;50.876;4.736;2023-02-23T08:58:32;8.30;99.90
8820;DHT22;4446;50.876;4.736;2023-02-23T09:00:59;8.40;99.90
8820;DHT22;4446;50.876;4.736;2023-02-23T09:03:27;8.50;99.90
8820;DHT22;4446;50.876;4.736;2023-02-23T09:05:55;8.50;99.90
8820;DHT22;4446;50.876;4.736;2023-02-23T09:08:23;8.60;99.90
8820;DHT22;4446;50.876;4.736;2023-02-23T09:10:51;8.60;99.90
8820;DHT22;4446;50.876;4.736;2023-02-23T09:13:18;8.70;99.90
8820;DHT22;4446;50.876;4.736;2023-02-23T09:15:45;8.60;99.90
8820;DHT22;4446;50.876;4.736;2023-02-23T09:18:13;8.60;99.90
8820;DHT22;4446;50.876;4.736;2023-02-23T09:20:40;8.60;99.90
8820;DHT22;4446;50.876;4.736;2023-02-23T09:23:08;8.60;99.90
8820;DHT22;4446;50.876;4.736;2023-02-23T09:25:39;8.60;99.90
8820;DHT22;4446;50.876;4.736;2023-02-23T09:28:10;8.70;99.90
8820;DHT22;4446;50.876;4.736;2023-02-23T09:30:38;8.80;99.90
8820;DHT22;4446;50.876;4.736;2023-02-23T09:33:06;8.90;99.90
8820;DHT22;4446;50.876;4.736;2023-02-23T09:35:34;9.10;99.90
8820;DHT22;4446;50.876;4.736;2023-02-23T09:38:03;9.00;99.90
8820;DHT22;4446;50.876;4.736;2023-02-23T09:40:36;9.00;99.90
8820;DHT22;4446;50.876;4.736;2023-02-23T09:43:14;9.00;99.90
8820;DHT22;4446;50.876;4.736;2023-02-23T09:45:46;8.90;99.90
8820;DHT22;4446;50.876;4.736;2023-02-23T09:48:16;8.90;99.90
8820;DHT22;4446;50.876;4.736;2023-02-23T09:50:46;8.90;99.90
8820;DHT22;4446;50.876;4.736;2023-02-23T09:53:25;8.90;99.90
8820;DHT22;4446;50.876;4.736;2023-02-23T09:55:55;8.80;99.90
8820;DHT22;4446;50.876;4.736;2023-02-23T09:58:25;8.90;99.90
8820;DHT22;4446;50.876;4.736;2023-02-23T10:01:29;9.00;99.90
8820;DHT22;4446;50.876;4.736;2023-02-23T10:04:05;8.90;99.90
8820;DHT22;4446;50.876;4.736;2023-02-23T10:06:33;8.80;99.90
8820;DHT22;4446;50.876;4.736;2023-02-23T10:09:07;8.80;99.90
8820;DHT22;4446;50.876;4.736;2023-02-23T10:11:43;8.80;99.90
8820;DHT22;4446;50.876;4.736;2023-02-23T10:14:33;8.90;99.90
8820;DHT22;4446;50.876;4.736;2023-02-23T10:17:12;8.90;99.90
8820;DHT22;4446;50.876;4.736;2023-02-23T10:19:46;9.10;99.90
8820;DHT22;4446;50.876;4.736;2023-02-23T10:22:17;9.20;99.90
8820;DHT22;4446;50.876;4.736;2023-02-23T10:24:51;9.40;99.90
8820;DHT22;4446;50.876;4.736;2023-02-23T10:27:21;9.50;99.90
8820;DHT22;4446;50.876;4.736;2023-02-23T10:29:52;9.50;99.90
8820;DHT22;4446;50.876;4.736;2023-02-23T10:32:24;9.60;99.90
8820;DHT22;4446;50.876;4.736;2023-02-23T10:34:54;9.50;99.90
8820;DHT22;4446;50.876;4.736;2023-02-23T10:37:22;9.40;99.90
8820;DHT22;4446;50.876;4.736;2023-02-23T10:39:50;9.40;99.90
8820;DHT22;4446;50.876;4.736;2023-02-23T10:42:21;9.40;99.90
8820;DHT22;4446;50.876;4.736;2023-02-23T10:44:57;9.30;99.90
8820;DHT22;4446;50.876;4.736;2023-02-23T10:47:27;9.30;99.90
8820;DHT22;4446;50.876;4.736;2023-02-23T10:49:57;9.30;99.90
8820;DHT22;4446;50.876;4.736;2023-02-23T10:52:28;9.30;99.90
8820;DHT22;4446;50.876;4.736;2023-02-23T10:54:58;9.40;99.90
8820;DHT22;4446;50.876;4.736;2023-02-23T10:57:26;9.40;99.90
8820;DHT22;4446;50.876;4.736;2023-02-23T11:00:21;9.50;99.90
8820;DHT22;4446;50.876;4.736;2023-02-23T11:02:52;9.70;99.90
8820;DHT22;4446;50.876;4.736;2023-02-23T11:05:43;10.00;99.90
8820;DHT22;4446;50.876;4.736;2023-02-23T11:08:22;10.20;99.90
8820;DHT22;4446;50.876;4.736;2023-02-23T11:11:04;10.30;99.90
8820;DHT22;4446;50.876;4.736;2023-02-23T11:13:37;10.50;99.90
8820;DHT22;4446;50.876;4.736;2023-02-23T11:16:08;10.50;99.90
8820;DHT22;4446;50.876;4.736;2023-02-23T11:18:37;10.60;99.90
8820;DHT22;4446;50.876;4.736;2023-02-23T11:21:09;10.70;99.90
8820;DHT22;4446;50.876;4.736;2023-02-23T11:23:37;10.80;99.90
8820;DHT22;4446;50.876;4.736;2023-02-23T11:26:21;10.80;99.90
8820;DHT22;4446;50.876;4.736;2023-02-23T11:28:52;10.80;99.90
8820;DHT22;4446;50.876;4.736;2023-02-23T11:31:26;10.70;99.90
8820;DHT22;4446;50.876;4.736;2023-02-23T11:33:55;10.40;99.90
8820;DHT22;4446;50.876;4.736;2023-02-23T11:36:26;10.40;99.90
8820;DHT22;4446;50.876;4.736;2023-02-23T11:39:17;10.30;99.90
8820;DHT22;4446;50.876;4.736;2023-02-23T11:41:44;10.40;99.90
8820;DHT22;4446;50.876;4.736;2023-02-23T11:44:19;10.40;99.90
8820;DHT22;4446;50.876;4.736;2023-02-23T11:46:48;10.50;99.90
8820;DHT22;4446;50.876;4.736;2023-02-23T11:49:19;10.60;99.90
8820;DHT22;4446;50.876;4.736;2023-02-23T11:51:48;10.70;99.90
8820;DHT22;4446;50.876;4.736;2023-02-23T11:54:22;10.60;99.90
8820;DHT22;4446;50.876;4.736;2023-02-23T11:56:51;10.60;99.90
8820;DHT22;4446;50.876;4.736;2023-02-23T11:59:25;10.70;99.90
8820;DHT22;4446;50.876;4.736;2023-02-23T12:02:02;10.70;99.90
8820;DHT22;4446;50.876;4.736;2023-02-23T12:04:32;10.80;99.90
8820;DHT22;4446;50.876;4.736;2023-02-23T12:07:22;10.70;99.90
8820;DHT22;4446;50.876;4.736;2023-02-23T12:09:56;10.70;99.90
8820;DHT22;4446;50.876;4.736;2023-02-23T12:12:26;10.70;99.90
8820;DHT22;4446;50.876;4.736;2023-02-23T12:14:58;10.70;99.90
8820;DHT22;4446;50.876;4.736;2023-02-23T12:17:30;10.70;99.90
8820;DHT22;4446;50.876;4.736;2023-02-23T12:20:01;10.50;99.90
8820;DHT22;4446;50.876;4.736;2023-02-23T12:22:33;10.40;99.90
8820;DHT22;4446;50.876;4.736;2023-02-23T12:25:03;10.40;99.90
8820;DHT22;4446;50.876;4.736;2023-02-23T12:27:35;10.30;99.90
8820;DHT22;4446;50.876;4.736;2023-02-23T12:30:13;10.40;99.90
8820;DHT22;4446;50.876;4.736;2023-02-23T12:32:46;10.40;99.90
8820;DHT22;4446;50.876;4.736;2023-02-23T12:35:19;10.30;99.90
8820;DHT22;4446;50.876;4.736;2023-02-23T12:37:52;10.30;99.90
8820;DHT22;4446;50.876;4.736;2023-02-23T12:40:24;10.40;99.90
8820;DHT22;4446;50.876;4.736;2023-02-23T12:42:58;10.40;99.90
8820;DHT22;4446;50.876;4.736;2023-02-23T12:45:33;10.40;99.90
8820;DHT22;4446;50.876;4.736;2023-02-23T12:48:13;10.20;99.90
8820;DHT22;4446;50.876;4.736;2023-02-23T12:50:44;10.30;99.90
8820;DHT22;4446;50.876;4.736;2023-02-23T12:53:20;10.10;99.90
8820;DHT22;4446;50.876;4.736;2023-02-23T12:56:03;10.00;99.90
8820;DHT22;4446;50.876;4.736;2023-02-23T12:58:38;10.10;99.90
8820;DHT22;4446;50.876;4.736;2023-02-23T13:01:08;10.20;99.90
8820;DHT22;4446;50.876;4.736;2023-02-23T13:03:49;10.10;99.90
8820;DHT22;4446;50.876;4.736;2023-02-23T13:06:24;10.10;99.90
8820;DHT22;4446;50.876;4.736;2023-02-23T13:09:05;10.10;99.90
8820;DHT22;4446;50.876;4.736;2023-02-23T13:11:46;10.10;99.90
8820;DHT22;4446;50.876;4.736;2023-02-23T13:14:20;10.20;99.90
8820;DHT22;4446;50.876;4.736;2023-02-23T13:16:54;10.30;99.90
8820;DHT22;4446;50.876;4.736;2023-02-23T13:19:30;10.30;99.90
8820;DHT22;4446;50.876;4.736;2023-02-23T13:22:08;10.30;99.90
8820;DHT22;4446;50.876;4.736;2023-02-23T13:24:43;10.50;99.90
8820;DHT22;4446;50.876;4.736;2023-02-23T13:27:15;10.60;99.90
8820;DHT22;4446;50.876;4.736;2023-02-23T13:29:45;10.50;99.90
8820;DHT22;4446;50.876;4.736;2023-02-23T13:32:16;10.40;99.90
8820;DHT22;4446;50.876;4.736;2023-02-23T13:34:50;10.60;99.90
8820;DHT22;4446;50.876;4.736;2023-02-23T13:37:20;10.60;99.90
8820;DHT22;4446;50.876;4.736;2023-02-23T13:39:59;10.50;99.90
8820;DHT22;4446;50.876;4.736;2023-02-23T13:42:42;10.70;99.90
8820;DHT22;4446;50.876;4.736;2023-02-23T13:45:35;10.60;99.90
8820;DHT22;4446;50.876;4.736;2023-02-23T13:48:15;10.50;99.90
8820;DHT22;4446;50.876;4.736;2023-02-23T13:50:50;10.40;99.90
8820;DHT22;4446;50.876;4.736;2023-02-23T13:53:38;10.30;99.90
8820;DHT22;4446;50.876;4.736;2023-02-23T13:56:07;10.30;99.90
8820;DHT22;4446;50.876;4.736;2023-02-23T13:58:35;10.30;99.90
8820;DHT22;4446;50.876;4.736;2023-02-23T14:01:07;10.30;99.90
8820;DHT22;4446;50.876;4.736;2023-02-23T14:03:43;10.10;99.90
8820;DHT22;4446;50.876;4.736;2023-02-23T14:06:14;9.90;99.90
8820;DHT22;4446;50.876;4.736;2023-02-23T14:08:48;9.90;99.90
8820;DHT22;4446;50.876;4.736;2023-02-23T14:11:45;9.80;99.90
8820;DHT22;4446;50.876;4.736;2023-02-23T14:14:15;9.70;99.90
8820;DHT22;4446;50.876;4.736;2023-02-23T14:17:09;9.70;99.90
8820;DHT22;4446;50.876;4.736;2023-02-23T14:19:40;9.60;99.90
8820;DHT22;4446;50.876;4.736;2023-02-23T14:22:13;9.60;99.90
8820;DHT22;4446;50.876;4.736;2023-02-23T14:24:42;9.50;99.90
8820;DHT22;4446;50.876;4.736;2023-02-23T14:27:19;9.50;99.90
8820;DHT22;4446;50.876;4.736;2023-02-23T14:30:07;9.80;99.90
8820;DHT22;4446;50.876;4.736;2023-02-23T14:32:38;9.80;99.90
8820;DHT22;4446;50.876;4.736;2023-02-23T14:35:37;9.80;99.90
8820;DHT22;4446;50.876;4.736;2023-02-23T14:38:15;9.70;99.90
8820;DHT22;4446;50.876;4.736;2023-02-23T14:40:46;9.60;99.90
8820;DHT22;4446;50.876;4.736;2023-02-23T14:43:39;9.60;99.90
8820;DHT22;4446;50.876;4.736;2023-02-23T14:46:13;9.60;99.90
8820;DHT22;4446;50.876;4.736;2023-02-23T14:48:44;9.60;99.90
8820;DHT22;4446;50.876;4.736;2023-02-23T14:51:32;9.70;99.90
8820;DHT22;4446;50.876;4.736;2023-02-23T14:54:02;9.70;99.90
8820;DHT22;4446;50.876;4.736;2023-02-23T14:56:45;9.60;99.90
8820;DHT22;4446;50.876;4.736;2023-02-23T14:59:18;9.60;99.90
8820;DHT22;4446;50.876;4.736;2023-02-23T15:01:46;9.70;99.90
8820;DHT22;4446;50.876;4.736;2023-02-23T15:04:16;9.70;99.90
8820;DHT22;4446;50.876;4.736;2023-02-23T15:06:45;9.70;99.90
8820;DHT22;4446;50.876;4.736;2023-02-23T15:09:17;9.70;99.90
8820;DHT22;4446;50.876;4.736;2023-02-23T15:11:48;9.70;99.90
8820;DHT22;4446;50.876;4.736;2023-02-23T15:14:19;9.70;99.90
8820;DHT22;4446;50.876;4.736;2023-02-23T15:16:48;9.70;99.90
8820;DHT22;4446;50.876;4.736;2023-02-23T15:19:17;9.70;99.90
8820;DHT22;4446;50.876;4.736;2023-02-23T15:21:50;9.80;99.90
8820;DHT22;4446;50.876;4.736;2023-02-23T15:24:22;9.80;99.90
8820;DHT22;4446;50.876;4.736;2023-02-23T15:26:52;9.90;99.90
8820;DHT22;4446;50.876;4.736;2023-02-23T15:29:21;10.00;99.90
8820;DHT22;4446;50.876;4.736;2023-02-23T15:31:50;10.00;99.90
8820;DHT22;4446;50.876;4.736;2023-02-23T15:34:19;10.00;99.90
8820;DHT22;4446;50.876;4.736;2023-02-23T15:36:49;9.90;99.90
8820;DHT22;4446;50.876;4.736;2023-02-23T15:39:27;9.90;99.90
8820;DHT22;4446;50.876;4.736;2023-02-23T15:42:01;9.90;99.90
8820;DHT22;4446;50.876;4.736;2023-02-23T15:44:28;9.80;99.90
8820;DHT22;4446;50.876;4.736;2023-02-23T15:46:59;9.80;99.90
8820;DHT22;4446;50.876;4.736;2023-02-23T15:49:28;9.70;99.90
8820;DHT22;4446;50.876;4.736;2023-02-23T15:51:58;9.80;99.90
8820;DHT22;4446;50.876;4.736;2023-02-23T15:54:30;9.70;99.90
8820;DHT22;4446;50.876;4.736;2023-02-23T15:57:02;9.80;99.90
8820;DHT22;4446;50.876;4.736;2023-02-23T15:59:34;9.80;99.90
8820;DHT22;4446;50.876;4.736;2023-02-23T16:02:03;9.80;99.90
8820;DHT22;4446;50.876;4.736;2023-02-23T16:04:39;9.90;99.90
8820;DHT22;4446;50.876;4.736;2023-02-23T16:07:16;10.00;99.90
8820;DHT22;4446;50.876;4.736;2023-02-23T16:09:50;10.00;99.90
8820;DHT22;4446;50.876;4.736;2023-02-23T16:12:20;10.00;99.90
8820;DHT22;4446;50.876;4.736;2023-02-23T16:14:50;9.90;99.90
8820;DHT22;4446;50.876;4.736;2023-02-23T16:17:25;9.80;99.90
8820;DHT22;4446;50.876;4.736;2023-02-23T16:19:55;9.80;99.90
8820;DHT22;4446;50.876;4.736;2023-02-23T16:22:24;9.70;99.90
8820;DHT22;4446;50.876;4.736;2023-02-23T16:25:01;9.70;99.90
8820;DHT22;4446;50.876;4.736;2023-02-23T16:27:30;9.60;99.90
8820;DHT22;4446;50.876;4.736;2023-02-23T16:29:59;9.50;99.90
8820;DHT22;4446;50.876;4.736;2023-02-23T16:32:34;9.50;99.90
8820;DHT22;4446;50.876;4.736;2023-02-23T16:35:07;9.70;99.90
8820;DHT22;4446;50.876;4.736;2023-02-23T16:37:49;9.60;99.90
8820;DHT22;4446;50.876;4.736;2023-02-23T16:40:18;9.50;99.90
8820;DHT22;4446;50.876;4.736;2023-02-23T16:42:45;9.50;99.90
8820;DHT22;4446;50.876;4.736;2023-02-23T16:45:13;9.60;99.90
8820;DHT22;4446;50.876;4.736;2023-02-23T16:47:42;9.50;99.90
8820;DHT22;4446;50.876;4.736;2023-02-23T16:50:14;9.50;99.90
8820;DHT22;4446;50.876;4.736;2023-02-23T16:52:43;9.40;99.90
8820;DHT22;4446;50.876;4.736;2023-02-23T16:55:13;9.50;99.90
8820;DHT22;4446;50.876;4.736;2023-02-23T16:57:46;9.50;99.90